Slupsk, Poland

12:25 AM CEST on July 27, 2016 (GMT +0200)
IPOMORSK9 | | Change Station

Elev 23 ft 54.59 °N, 16.86 °E | Updated 11 seconds ago

Partly Cloudy
Partly Cloudy
63.1 °F
Feels Like 63.1 °F
N
4.5
Wind Variable Wind from WSW
Gusts 4.5 mph

Today
High -- | Low -- °F
--% Chance of Precip.
Yesterday
High -- | Low -- °F
Precip. -- in
Pressure 30.09 in
Visibility 6.2 miles
Clouds Few 3900 ft
Dew Point 62 °F
Humidity 97%
Rainfall 0.00 in
Snow Depth Not available.
4:55 AM 9:00 PM
Waning Gibbous, 50% visible
METAR EPGD 262200Z 29005KT 9999 FEW039 18/17 Q1019
Pressure 30.09 in
Visibility 6.2 miles
Clouds Few 3900 ft
Dew Point 62 °F
Humidity 97%
Rainfall 0.00 in
Snow Depth Not available.
4:55 AM 9:00 PM
Waning Gibbous, 50% visible
METAR EPGD 262200Z 29005KT 9999 FEW039 18/17 Q1019

10-Day Weather Forecast

×

Almanac

Astronomy

Jul. 27, 2016 Rise Set
Actual Time
Civil Twilight
Nautical Twilight
Astronomical Twilight
Moon
Length of Visible Light
Length of Day
Tomorrow will be .
, % of the Moon is Illuminated

Today's Extremes

Country Highs Country Lows

Community

WunderPhotos

Upload Photos

1,927,717 photos uploaded!

WunderBlog® & News

Nearby

Air Quality

  Air Quality AQ Index Pollutant
Not available.

Snow Depth

Station Depth Elevation

Earthquake Activity

City Distance Mag. Time & Date
Minimum magnitude displayed is 2.5.

Coastal Water Temperatures

Place Temperature

Stations

Nearby Weather Stations

Station Location Temp. Windchill Dew Point Humidity Wind Precip. Elev Updated Type